Time;durP1;ratioP1;P1;durP2;ratioP2;P2;SDS_P1;SDS_P2;PMS_P1;PMS_P2;Temp;Humidity;BMP_temperature;BMP_pressure;BME280_temperature;BME280_humidity;BME280_pressure;Samples;Min_cycle;Max_cycle;Signal;HPM_P1;HPM_P2
2022/12/13 00:01:16;;;;;;;28.42;13.85;;;;;;;-2.58;72.48;100993.06;3606932;39;20054;-63
2022/12/13 00:03:43;;;;;;;27.00;14.07;;;;;;;-2.89;72.19;100939.72;3607816;39;20387;-63
2022/12/13 00:06:11;;;;;;;27.40;14.15;;;;;;;-2.63;72.54;100985.22;3610658;39;20054;-63
2022/12/13 00:08:38;;;;;;;22.20;12.65;;;;;;;-2.65;72.58;100981.72;3608552;39;20050;-63
2022/12/13 00:11:12;;;;;;;26.13;13.43;;;;;;;-2.73;72.32;100972.97;3608439;39;20046;-63
2022/12/13 00:13:40;;;;;;;25.95;13.00;;;;;;;-2.68;72.81;100984.34;3611699;39;20050;-65
2022/12/13 00:16:11;;;;;;;23.35;12.95;;;;;;;-2.68;73.13;100972.97;3608713;39;20051;-63
2022/12/13 00:18:37;;;;;;;25.17;12.95;;;;;;;-2.66;73.65;100979.09;3607498;39;20047;-63
2022/12/13 00:21:11;;;;;;;20.35;12.13;;;;;;;-2.68;73.59;100981.72;3607237;39;20309;-64
2022/12/13 00:23:37;;;;;;;22.73;13.38;;;;;;;-2.69;73.27;100979.13;3607092;39;20095;-63
2022/12/13 00:26:10;;;;;;;25.13;13.00;;;;;;;-2.71;73.27;100979.09;3606460;39;20451;-64
2022/12/13 00:28:37;;;;;;;22.65;13.10;;;;;;;-2.88;73.27;100942.38;3607942;39;20054;-63
2022/12/13 00:31:03;;;;;;;26.10;13.70;;;;;;;-2.71;73.86;100971.22;3605197;39;20058;-64
2022/12/13 00:33:29;;;;;;;28.73;14.45;;;;;;;-2.71;73.94;100976.47;3610533;39;20248;-63
2022/12/13 00:35:56;;;;;;;28.23;13.88;;;;;;;-2.81;74.05;100956.38;3606776;39;20096;-63
2022/12/13 00:38:23;;;;;;;25.38;13.57;;;;;;;-2.80;73.46;100968.63;3607786;39;20112;-64
2022/12/13 00:40:50;;;;;;;25.05;14.15;;;;;;;-2.79;73.20;100967.78;3608489;39;20066;-65
2022/12/13 00:43:16;;;;;;;26.02;13.90;;;;;;;-2.78;73.07;100974.78;3608670;39;20066;-64
2022/12/13 00:45:42;;;;;;;27.77;13.57;;;;;;;-2.84;72.77;100969.53;3608337;39;20062;-63
2022/12/13 00:48:07;;;;;;;24.50;13.43;;;;;;;-2.82;72.87;100978.31;3611093;39;20423;-63
2022/12/13 00:50:33;;;;;;;27.38;13.25;;;;;;;-2.84;72.90;100974.78;3603583;39;20047;-63
2022/12/13 00:53:00;;;;;;;24.08;12.93;;;;;;;-2.86;72.48;100971.28;3608799;39;20374;-63
2022/12/13 00:55:27;;;;;;;22.90;13.35;;;;;;;-2.88;71.89;100967.81;3599868;39;20047;-63
2022/12/13 00:57:52;;;;;;;24.95;13.90;;;;;;;-2.89;71.74;100961.66;3604100;39;20050;-63
2022/12/13 01:00:19;;;;;;;25.00;13.57;;;;;;;-2.89;71.84;100968.66;3605126;39;20047;-63
2022/12/13 01:02:46;;;;;;;23.23;13.70;;;;;;;-2.91;72.07;100957.31;3609877;39;20112;-63
2022/12/13 01:05:12;;;;;;;25.67;12.90;;;;;;;-2.94;72.16;100966.06;3609198;39;20063;-63
2022/12/13 01:07:38;;;;;;;24.30;12.68;;;;;;;-2.95;71.82;100966.97;3611158;39;20059;-63
2022/12/13 01:10:06;;;;;;;23.65;12.88;;;;;;;-3.06;71.56;100948.59;3607489;39;20047;-65
2022/12/13 01:12:35;;;;;;;22.88;12.70;;;;;;;-3.02;71.65;100965.22;3609880;39;20047;-63
2022/12/13 01:15:01;;;;;;;25.90;13.23;;;;;;;-3.03;71.66;100958.22;3606278;39;20360;-64
2022/12/13 01:17:27;;;;;;;22.92;13.00;;;;;;;-3.05;71.44;100955.56;3609183;39;20080;-64
2022/12/13 01:19:52;;;;;;;25.60;12.88;;;;;;;-3.06;71.78;100958.22;3614016;39;20090;-62
2022/12/13 01:22:18;;;;;;;25.08;13.10;;;;;;;-3.12;71.56;100943.34;3606049;39;20047;-64
2022/12/13 01:24:43;;;;;;;23.13;13.18;;;;;;;-3.08;71.98;100950.34;3609659;39;20075;-63
2022/12/13 01:27:09;;;;;;;23.00;13.75;;;;;;;-3.08;72.47;100947.69;3612686;39;20043;-63
2022/12/13 01:29:36;;;;;;;28.33;14.95;;;;;;;-3.10;72.47;100949.47;3609613;39;20055;-63
2022/12/13 01:32:02;;;;;;;28.77;13.57;;;;;;;-3.11;72.91;100947.75;3610983;39;20089;-64
2022/12/13 01:34:27;;;;;;;26.58;15.02;;;;;;;-3.12;72.88;100961.75;3609958;39;20055;-63
2022/12/13 01:36:54;;;;;;;28.67;14.25;;;;;;;-3.24;73.03;100943.38;3611386;39;20081;-63
2022/12/13 01:39:20;;;;;;;24.30;13.52;;;;;;;-3.16;72.94;100965.28;3613571;39;20199;-63
2022/12/13 01:41:51;;;;;;;26.73;13.82;;;;;;;-3.15;73.77;100967.03;3612466;39;20191;-64
2022/12/13 01:44:54;;;;;;;25.92;14.18;;;;;;;-3.18;73.79;100964.41;3612246;39;20062;-63
2022/12/13 01:47:35;;;;;;;26.45;13.77;;;;;;;-3.23;73.71;100965.31;3611650;39;20107;-63
2022/12/13 01:50:10;;;;;;;28.02;14.70;;;;;;;-3.21;74.32;100972.28;3608713;39;20058;-63
2022/12/13 01:52:38;;;;;;;28.15;14.98;;;;;;;-3.21;74.35;100966.16;3607453;39;20055;-63
2022/12/13 01:55:10;;;;;;;25.15;14.18;;;;;;;-3.27;74.64;100969.69;3610344;39;20047;-63
2022/12/13 01:57:43;;;;;;;25.13;14.10;;;;;;;-3.27;74.46;100960.06;3608467;39;20080;-63
2022/12/13 02:00:09;;;;;;;26.50;15.02;;;;;;;-3.28;74.75;100962.69;3611621;39;20049;-64
2022/12/13 02:02:36;;;;;;;30.17;14.80;;;;;;;-3.30;74.42;100964.44;3611360;39;20059;-63
2022/12/13 02:05:14;;;;;;;29.88;14.48;;;;;;;-3.31;74.89;100957.44;3608070;39;20059;-63
2022/12/13 02:07:43;;;;;;;28.38;15.10;;;;;;;-3.32;74.71;100953.06;3613777;39;20051;-63
2022/12/13 02:10:10;;;;;;;31.17;14.57;;;;;;;-3.38;74.94;100945.19;3611734;39;20062;-63
2022/12/13 02:12:39;;;;;;;25.60;14.55;;;;;;;-3.32;75.18;100956.56;3605377;39;20051;-63
2022/12/13 02:15:11;;;;;;;27.33;14.48;;;;;;;-3.31;75.08;100965.31;3603754;39;20408;-63
2022/12/13 02:18:27;;;;;;;24.52;14.77;;;;;;;-3.31;75.02;100952.19;3608285;39;20066;-63
2022/12/13 02:20:58;;;;;;;30.27;14.93;;;;;;;-3.29;74.77;100963.56;3593599;39;20055;-63
2022/12/13 02:23:48;;;;;;;27.73;15.18;;;;;;;-3.27;75.55;100959.16;3603445;39;20301;-63
2022/12/13 02:26:31;;;;;;;26.02;14.85;;;;;;;-3.22;75.64;100957.41;3604611;39;20051;-63
2022/12/13 02:29:44;;;;;;;27.60;14.52;;;;;;;-3.14;76.32;100958.28;3605415;39;20106;-63
2022/12/13 02:32:42;;;;;;;27.13;14.73;;;;;;;-3.08;76.28;100950.34;3605276;39;20142;-63
2022/12/13 02:35:26;;;;;;;27.65;15.77;;;;;;;-3.04;76.28;100957.34;3605938;39;20062;-63
2022/12/13 02:38:12;;;;;;;30.02;15.10;;;;;;;-3.04;75.78;100945.97;3609714;39;20076;-63
2022/12/13 02:40:54;;;;;;;30.08;16.58;;;;;;;-2.98;76.02;100950.28;3607602;39;20047;-64
2022/12/13 02:43:31;;;;;;;30.92;15.65;;;;;;;-2.95;76.50;100950.28;3605543;39;20059;-63
2022/12/13 02:46:04;;;;;;;30.95;15.48;;;;;;;-2.96;76.17;100938.91;3607073;39;20366;-64
2022/12/13 02:48:39;;;;;;;30.20;15.23;;;;;;;-2.95;76.06;100939.75;3610375;39;20079;-63
2022/12/13 02:51:10;;;;;;;30.63;15.90;;;;;;;-3.23;76.34;100889.09;3607802;39;20051;-63
2022/12/13 02:53:40;;;;;;;31.98;16.33;;;;;;;-3.00;76.00;100931.03;3605885;39;20055;-62
2022/12/13 02:56:06;;;;;;;29.75;15.63;;;;;;;-2.95;75.84;100939.75;3606740;39;20043;-62
2022/12/13 02:58:43;;;;;;;32.10;16.60;;;;;;;-2.94;76.48;100937.16;3607668;39;20391;-63
2022/12/13 03:01:50;;;;;;;28.65;14.93;;;;;;;-2.94;75.79;100928.38;3607980;39;20055;-62
2022/12/13 03:06:28;;;;;;;28.45;15.55;;;;;;;-2.96;76.17;100925.75;3611353;39;20463;-64
2022/12/13 03:07:43;;;;;;;28.90;15.27;;;;;;;-2.98;76.08;100926.63;3608742;39;20054;-63
2022/12/13 03:10:21;;;;;;;31.15;14.80;;;;;;;-2.99;75.16;100922.25;3606499;39;20057;-63
2022/12/13 03:16:13;;;;;;;27.67;15.35;;;;;;;-2.96;76.47;100930.13;3606355;39;20074;-63
2022/12/13 03:18:40;;;;;;;30.00;15.77;;;;;;;-2.96;76.37;100932.75;3605928;39;20409;-63
2022/12/13 03:21:08;;;;;;;31.00;15.80;;;;;;;-2.96;76.04;100927.50;3607216;39;20054;-63
2022/12/13 03:23:35;;;;;;;30.83;15.93;;;;;;;-2.94;76.16;100931.00;3609279;39;20057;-63
2022/12/13 03:26:15;;;;;;;31.73;17.13;;;;;;;-2.94;75.85;100929.25;3606402;39;20340;-63
2022/12/13 03:28:41;;;;;;;29.98;16.17;;;;;;;-3.03;75.89;100901.25;3606967;39;20062;-63
2022/12/13 03:31:08;;;;;;;30.35;16.52;;;;;;;-2.90;76.06;100925.72;3608962;39;20051;-62
2022/12/13 03:33:34;;;;;;;31.80;17.05;;;;;;;-3.07;75.58;100896.88;3604119;39;20124;-63
2022/12/13 03:36:01;;;;;;;29.13;15.90;;;;;;;-3.62;75.79;100809.53;3603629;39;20047;-63
2022/12/13 03:38:29;;;;;;;27.73;15.30;;;;;;;-2.89;75.95;100931.84;3605948;39;20057;-62
2022/12/13 03:41:05;;;;;;;31.60;16.65;;;;;;;-2.91;75.86;100928.38;3604956;39;20047;-63
2022/12/13 03:43:31;;;;;;;27.50;15.23;;;;;;;-2.93;75.41;100924.88;3604128;39;20412;-63
2022/12/13 03:45:56;;;;;;;33.63;16.73;;;;;;;-2.96;75.33;100928.38;3607310;39;20059;-63
2022/12/13 03:48:23;;;;;;;30.65;16.02;;;;;;;-2.97;75.20;100926.63;3606097;39;20386;-63
2022/12/13 03:50:51;;;;;;;28.92;15.85;;;;;;;-2.98;75.61;100919.63;3603854;39;20051;-64
2022/12/13 03:53:17;;;;;;;31.67;16.17;;;;;;;-2.99;75.18;100922.25;3605179;39;20185;-63
2022/12/13 03:55:43;;;;;;;27.02;15.70;;;;;;;-3.05;75.42;100913.50;3608579;39;20062;-63
2022/12/13 03:58:08;;;;;;;26.98;15.90;;;;;;;-3.03;75.44;100917.00;3606237;39;20043;-63
2022/12/13 04:00:34;;;;;;;30.02;16.27;;;;;;;-3.03;75.50;100917.00;3605139;39;20352;-63
2022/12/13 04:02:59;;;;;;;27.63;15.73;;;;;;;-3.04;75.91;100917.03;3608481;39;20061;-63
2022/12/13 04:05:25;;;;;;;32.88;15.68;;;;;;;-3.07;75.47;100920.56;3606841;39;20043;-64
2022/12/13 04:07:51;;;;;;;30.42;16.30;;;;;;;-3.11;75.35;100912.66;3612497;39;20059;-63
2022/12/13 04:10:16;;;;;;;33.03;15.57;;;;;;;-3.11;75.35;100917.94;3607816;39;20386;-63
2022/12/13 04:15:26;;;;;;;29.63;17.05;;;;;;;-3.15;75.67;100909.19;3606556;39;20049;-63
2022/12/13 04:17:52;;;;;;;34.42;15.75;;;;;;;-3.14;75.65;100904.78;3607848;39;20059;-63
2022/12/13 04:20:17;;;;;;;28.27;15.55;;;;;;;-3.16;75.10;100902.19;3607779;39;20059;-63
2022/12/13 04:22:43;;;;;;;27.92;15.60;;;;;;;-3.21;75.30;100890.81;3609039;39;20069;-63
2022/12/13 04:25:09;;;;;;;30.35;15.55;;;;;;;-3.18;75.71;100906.56;3607348;39;20096;-63
2022/12/13 04:27:36;;;;;;;26.63;14.70;;;;;;;-3.20;75.16;100907.44;3608853;39;20421;-62
2022/12/13 04:30:07;;;;;;;28.85;15.88;;;;;;;-3.19;75.80;100904.81;3606777;39;20073;-62
2022/12/13 04:32:33;;;;;;;34.58;16.75;;;;;;;-3.17;75.52;100899.53;3606733;39;20374;-63
2022/12/13 04:34:59;;;;;;;28.10;15.95;;;;;;;-3.18;75.45;100909.19;3606411;39;20096;-62
2022/12/13 04:37:24;;;;;;;32.15;16.02;;;;;;;-3.17;75.30;100903.06;3607480;39;20050;-62
2022/12/13 04:39:50;;;;;;;29.73;15.48;;;;;;;-3.19;74.59;100906.59;3607099;39;20047;-63
2022/12/13 04:42:16;;;;;;;27.80;14.80;;;;;;;-3.21;74.40;100901.31;3606601;39;20073;-62
2022/12/13 04:44:41;;;;;;;30.30;15.10;;;;;;;-3.21;74.44;100901.31;3604427;39;20079;-64
2022/12/13 04:47:07;;;;;;;26.42;15.05;;;;;;;-3.23;74.71;100903.09;3608514;39;20064;-62
2022/12/13 04:49:34;;;;;;;24.85;14.82;;;;;;;-3.25;74.32;100891.72;3603178;39;20095;-63
2022/12/13 04:52:01;;;;;;;26.98;14.85;;;;;;;-3.28;73.95;100894.34;3604993;39;20088;-62
2022/12/13 04:54:27;;;;;;;27.45;14.70;;;;;;;-3.29;74.18;100892.59;3606148;39;20047;-63
2022/12/13 04:56:53;;;;;;;32.58;15.80;;;;;;;-3.31;73.99;100889.97;3611383;39;20043;-62
2022/12/13 04:59:18;;;;;;;27.58;15.68;;;;;;;-3.31;74.37;100886.47;3606859;39;20053;-62
2022/12/13 05:01:44;;;;;;;28.50;15.43;;;;;;;-3.32;74.45;100892.63;3607293;39;20059;-62
2022/12/13 05:04:10;;;;;;;27.02;15.00;;;;;;;-3.32;74.19;100892.63;3606576;39;20047;-62
2022/12/13 05:06:35;;;;;;;28.02;14.88;;;;;;;-3.33;74.20;100893.47;3608615;39;20066;-63
2022/12/13 05:09:01;;;;;;;32.97;15.85;;;;;;;-3.35;73.96;100890.88;3606159;39;20047;-62
2022/12/13 05:11:27;;;;;;;28.08;14.40;;;;;;;-3.37;74.05;100890.00;3608182;39;20382;-62
2022/12/13 05:13:53;;;;;;;33.15;15.05;;;;;;;-3.45;73.56;100880.41;3608190;39;20051;-62
2022/12/13 05:16:18;;;;;;;24.23;14.85;;;;;;;-3.39;73.68;100891.78;3602436;39;20062;-63
2022/12/13 05:18:44;;;;;;;26.15;14.65;;;;;;;-3.39;73.24;100883.03;3609013;39;20055;-62
2022/12/13 05:21:11;;;;;;;28.42;15.32;;;;;;;-3.69;73.39;100839.31;3610931;39;20046;-62
2022/12/13 05:23:39;;;;;;;30.73;14.60;;;;;;;-3.42;73.07;100883.91;3609305;39;20055;-62
2022/12/13 05:26:05;;;;;;;29.35;15.98;;;;;;;-3.41;72.78;100884.78;3607176;39;20360;-63
2022/12/13 05:28:32;;;;;;;31.63;16.02;;;;;;;-3.45;73.48;100880.41;3607812;39;20054;-62
2022/12/13 05:31:07;;;;;;;29.33;15.63;;;;;;;-3.43;73.70;100873.38;3608058;39;20054;-62
2022/12/13 05:33:33;;;;;;;27.58;15.18;;;;;;;-3.39;74.47;100875.13;3607422;39;20053;-64
2022/12/13 05:35:59;;;;;;;29.45;15.40;;;;;;;-3.39;74.86;100864.63;3607543;39;20298;-63
2022/12/13 05:38:24;;;;;;;29.98;16.27;;;;;;;-3.34;74.69;100881.22;3610500;39;20055;-63
2022/12/13 05:40:50;;;;;;;31.83;16.30;;;;;;;-3.33;74.93;100872.44;3607855;39;20055;-63
2022/12/13 05:43:15;;;;;;;28.45;15.57;;;;;;;-3.30;75.05;100869.81;3607559;39;20394;-63
2022/12/13 05:45:41;;;;;;;29.25;16.30;;;;;;;-3.30;75.09;100872.44;3607433;39;20130;-63
2022/12/13 05:48:08;;;;;;;31.83;16.55;;;;;;;-3.40;75.35;100852.34;3609868;39;20291;-64
2022/12/13 05:50:37;;;;;;;31.67;16.13;;;;;;;-3.60;75.48;100811.28;3607645;39;20039;-64
2022/12/13 05:53:04;;;;;;;33.80;16.45;;;;;;;-3.30;75.47;100860.19;3607776;39;20087;-63
2022/12/13 05:55:30;;;;;;;30.35;16.50;;;;;;;-4.77;75.29;100603.50;3607720;39;20112;-63
2022/12/13 05:57:57;;;;;;;29.35;16.17;;;;;;;-3.24;75.41;100864.53;3608999;39;20055;-63
2022/12/13 06:00:24;;;;;;;28.77;15.65;;;;;;;-3.33;75.26;100847.06;3611136;39;20043;-63
2022/12/13 06:02:49;;;;;;;30.65;16.17;;;;;;;-3.23;75.43;100868.94;3612699;39;20055;-67
2022/12/13 06:05:15;;;;;;;32.47;16.35;;;;;;;-3.21;75.63;100869.78;3611645;39;20162;-64
2022/12/13 06:07:41;;;;;;;32.83;16.33;;;;;;;-3.21;74.96;100863.66;3607581;39;20059;-64
2022/12/13 06:10:08;;;;;;;30.45;15.65;;;;;;;-3.23;74.63;100876.81;3613293;39;20256;-63
2022/12/13 06:12:35;;;;;;;28.63;15.55;;;;;;;-3.23;73.97;100875.94;3614833;39;20055;-62
2022/12/13 06:15:01;;;;;;;32.35;16.05;;;;;;;-3.25;74.04;100878.56;3606824;39;20251;-62
2022/12/13 06:17:35;;;;;;;29.42;15.50;;;;;;;-3.27;73.86;100877.69;3610309;39;20306;-63
2022/12/13 06:20:03;;;;;;;29.05;15.90;;;;;;;-3.29;73.96;100868.97;3606659;39;20047;-63
2022/12/13 06:22:28;;;;;;;29.13;15.75;;;;;;;-3.28;74.17;100878.56;3605017;39;20168;-62
2022/12/13 06:24:54;;;;;;;29.38;16.63;;;;;;;-3.47;74.61;100837.50;3604113;39;20412;-63
2022/12/13 06:27:20;;;;;;;28.65;16.80;;;;;;;-3.50;74.32;100834.00;3603611;39;20057;-62
2022/12/13 06:29:46;;;;;;;32.15;16.27;;;;;;;-3.29;74.33;100871.59;3607459;39;20310;-62
2022/12/13 06:32:11;;;;;;;33.28;17.60;;;;;;;-3.30;74.36;100865.47;3608130;39;20047;-62
2022/12/13 06:34:37;;;;;;;32.47;16.33;;;;;;;-3.29;74.69;100876.84;3607200;39;20067;-63
2022/12/13 06:37:07;;;;;;;32.03;18.60;;;;;;;-3.30;74.67;100869.81;3610414;39;20397;-63
2022/12/13 06:39:33;;;;;;;31.38;16.67;;;;;;;-3.31;74.57;100878.59;3607372;39;20063;-63
2022/12/13 06:42:01;;;;;;;29.05;15.65;;;;;;;-3.32;74.61;100877.72;3607631;39;20059;-63
2022/12/13 06:44:27;;;;;;;32.72;18.25;;;;;;;-3.32;74.63;100877.72;3606596;39;20150;-63
2022/12/13 06:46:53;;;;;;;29.50;15.52;;;;;;;-3.31;75.27;100879.47;3608734;39;20617;-62
2022/12/13 06:49:18;;;;;;;34.25;17.20;;;;;;;-3.35;74.96;100883.00;3609808;39;20050;-63
2022/12/13 06:51:45;;;;;;;32.05;16.88;;;;;;;-3.41;74.89;100858.50;3606205;39;20067;-62
2022/12/13 06:54:10;;;;;;;30.67;16.92;;;;;;;-3.30;75.25;100867.19;3609124;39;20048;-62
2022/12/13 06:56:36;;;;;;;31.80;16.65;;;;;;;-3.35;75.32;100856.72;3606436;39;20062;-62
2022/12/13 06:59:01;;;;;;;36.47;18.13;;;;;;;-3.30;75.19;100864.56;3607152;39;20054;-63
2022/12/13 07:01:28;;;;;;;30.63;16.73;;;;;;;-3.40;74.64;100849.72;3609853;39;20387;-62
2022/12/13 07:03:54;;;;;;;34.75;19.33;;;;;;;-3.37;75.10;100857.59;3607582;39;20051;-63
2022/12/13 07:06:23;;;;;;;36.50;18.42;;;;;;;-3.28;75.41;100873.31;3606493;39;20046;-64
2022/12/13 07:08:55;;;;;;;34.15;18.02;;;;;;;-3.27;75.42;100867.16;3608885;39;20047;-63
2022/12/13 07:11:29;;;;;;;35.30;18.55;;;;;;;-3.30;75.57;100859.31;3604455;39;20243;-63
2022/12/13 07:13:55;;;;;;;36.28;18.13;;;;;;;-3.26;75.93;100874.19;3608129;39;20054;-64
2022/12/13 07:16:23;;;;;;;33.10;17.95;;;;;;;-3.43;75.44;100839.22;3606657;39;20115;-63
2022/12/13 07:18:57;;;;;;;31.55;17.17;;;;;;;-3.24;75.75;100863.66;3610341;39;20047;-64
2022/12/13 07:21:23;;;;;;;38.83;18.40;;;;;;;-3.24;75.84;100868.91;3608555;39;20063;-63
2022/12/13 07:23:49;;;;;;;32.33;17.90;;;;;;;-3.26;74.80;100866.31;3608422;39;20267;-64
2022/12/13 07:26:15;;;;;;;34.03;18.17;;;;;;;-3.24;74.77;100874.19;3606400;39;20055;-63
2022/12/13 07:28:41;;;;;;;37.88;19.77;;;;;;;-3.23;75.63;100870.69;3606847;39;20083;-63
2022/12/13 07:31:09;;;;;;;45.60;23.25;;;;;;;-3.26;75.13;100868.94;3606546;39;20051;-64
2022/12/13 07:33:36;;;;;;;44.67;22.48;;;;;;;-3.26;74.96;100871.56;3606492;39;20047;-63
2022/12/13 07:36:19;;;;;;;39.55;19.40;;;;;;;-3.31;75.09;100858.44;3603467;39;20046;-64
2022/12/13 07:38:51;;;;;;;36.65;19.20;;;;;;;-3.65;74.82;100810.41;3609756;39;20059;-63
2022/12/13 07:41:16;;;;;;;37.78;20.05;;;;;;;-3.33;75.00;100870.72;3610353;39;20059;-64
2022/12/13 07:43:42;;;;;;;42.08;23.00;;;;;;;-3.28;75.27;100881.22;3605367;39;20655;-63
2022/12/13 07:46:10;;;;;;;35.45;19.30;;;;;;;-3.33;75.30;100862.84;3607550;39;20055;-63
2022/12/13 07:48:36;;;;;;;38.65;19.80;;;;;;;-3.22;75.76;100873.28;3607293;39;20044;-63
2022/12/13 07:51:07;;;;;;;38.70;20.00;;;;;;;-3.19;75.50;100881.16;3602105;39;20289;-63
2022/12/13 07:53:34;;;;;;;34.17;19.30;;;;;;;-3.16;75.84;100882.91;3606220;39;20108;-63
2022/12/13 07:56:06;;;;;;;37.42;18.92;;;;;;;-3.13;75.34;100881.13;3604374;39;20298;-64
2022/12/13 07:58:32;;;;;;;34.58;19.40;;;;;;;-3.38;75.16;100842.72;3602592;39;20128;-63
2022/12/13 08:01:05;;;;;;;35.35;19.88;;;;;;;-3.07;75.01;100890.75;3604405;39;20073;-64
2022/12/13 08:03:31;;;;;;;35.45;18.83;;;;;;;-3.05;75.36;100884.59;3598441;39;20051;-62
2022/12/13 08:06:01;;;;;;;35.60;20.00;;;;;;;-3.03;75.09;100885.47;3605802;39;20055;-64
2022/12/13 08:08:28;;;;;;;33.67;19.67;;;;;;;-2.98;75.75;100881.91;3605724;39;20101;-63
2022/12/13 08:10:53;;;;;;;36.92;19.95;;;;;;;-3.04;75.50;100862.69;3607533;39;20140;-63
2022/12/13 08:13:20;;;;;;;33.10;19.42;;;;;;;-2.89;75.27;100877.47;3603977;39;20050;-63
2022/12/13 08:15:46;;;;;;;42.03;20.58;;;;;;;-2.99;75.23;100851.25;3606137;39;20051;-63
2022/12/13 08:18:11;;;;;;;35.65;20.73;;;;;;;-2.82;76.04;100879.22;3605982;39;20062;-63
2022/12/13 08:20:37;;;;;;;39.90;21.35;;;;;;;-2.83;75.48;100877.44;3606685;39;20058;-63
2022/12/13 08:23:02;;;;;;;37.10;20.05;;;;;;;-2.74;75.75;100889.69;3609082;39;20054;-63
2022/12/13 08:25:29;;;;;;;39.53;21.10;;;;;;;-2.69;76.33;100879.13;3606992;39;20051;-63
2022/12/13 08:27:55;;;;;;;40.17;20.20;;;;;;;-2.61;76.31;100886.06;3607732;39;20058;-63
2022/12/13 08:30:21;;;;;;;34.20;20.70;;;;;;;-2.57;75.86;100898.34;3605501;39;20054;-62
2022/12/13 08:32:49;;;;;;;38.30;21.13;;;;;;;-2.47;75.99;100895.66;3606435;39;20066;-64
2022/12/13 08:35:15;;;;;;;39.75;20.73;;;;;;;-2.44;76.10;100893.88;3607498;39;20123;-63
2022/12/13 08:37:40;;;;;;;41.33;20.90;;;;;;;-2.39;75.13;100888.56;3607453;39;20391;-63
2022/12/13 08:40:07;;;;;;;41.47;21.05;;;;;;;-2.31;75.48;100894.66;3605564;39;20059;-63
2022/12/13 08:42:32;;;;;;;47.17;23.95;;;;;;;-2.26;75.89;100884.94;3607772;39;20066;-63
2022/12/13 08:44:58;;;;;;;38.35;21.17;;;;;;;-2.24;75.31;100888.44;3606156;39;20318;-64
2022/12/13 08:47:26;;;;;;;39.25;21.75;;;;;;;-2.15;74.99;100891.00;3608217;39;20054;-64
2022/12/13 08:49:58;;;;;;;35.10;20.38;;;;;;;-2.09;74.45;100892.72;3604002;39;20091;-63
2022/12/13 08:52:24;;;;;;;38.97;21.23;;;;;;;-2.03;74.83;100897.03;3606539;39;20051;-64
2022/12/13 08:54:50;;;;;;;35.85;20.17;;;;;;;-2.01;74.75;100895.25;3608642;39;20051;-64
2022/12/13 08:57:16;;;;;;;38.83;20.77;;;;;;;-1.98;74.11;100908.41;3607724;39;20058;-63
2022/12/13 08:59:42;;;;;;;41.25;21.70;;;;;;;-1.92;74.62;100919.75;3606459;39;20058;-63
2022/12/13 09:02:14;;;;;;;36.55;21.25;;;;;;;-1.87;74.04;100919.72;3606466;39;20286;-63
2022/12/13 09:04:41;;;;;;;39.43;20.73;;;;;;;-1.79;74.39;100917.00;3606903;39;20067;-63
2022/12/13 09:07:07;;;;;;;38.00;20.95;;;;;;;-2.03;74.20;100860.16;3606026;39;20253;-62
2022/12/13 09:09:32;;;;;;;38.97;20.08;;;;;;;-1.67;73.84;100912.47;3606329;39;20061;-63
2022/12/13 09:11:58;;;;;;;39.65;20.08;;;;;;;-1.66;73.00;100914.22;3609437;39;20051;-63
2022/12/13 09:14:24;;;;;;;37.38;20.85;;;;;;;-1.57;73.52;100913.25;3604395;39;20052;-63
2022/12/13 09:16:49;;;;;;;38.35;21.02;;;;;;;-1.53;73.55;100909.69;3605432;39;20382;-63
2022/12/13 09:19:15;;;;;;;35.42;19.98;;;;;;;-1.51;72.99;100907.06;3607747;39;20050;-64
2022/12/13 09:21:40;;;;;;;41.78;20.92;;;;;;;-1.48;73.17;100914.94;3609468;39;21579;-63
2022/12/13 09:24:06;;;;;;;35.15;19.95;;;;;;;-1.46;72.16;100913.13;3612373;39;20062;-64
2022/12/13 09:26:31;;;;;;;36.08;19.42;;;;;;;-1.43;71.88;100910.47;3606946;39;20070;-64
2022/12/13 09:28:57;;;;;;;38.40;20.30;;;;;;;-1.41;71.96;100913.97;3607092;39;20039;-63
2022/12/13 09:31:23;;;;;;;35.17;19.20;;;;;;;-1.41;71.48;100903.41;3610235;39;20111;-63
2022/12/13 09:33:49;;;;;;;37.00;20.25;;;;;;;-1.38;72.09;100906.03;3608586;39;20143;-64
2022/12/13 09:36:19;;;;;;;36.30;20.13;;;;;;;-1.33;72.00;100911.22;3608688;39;20386;-63
2022/12/13 09:38:46;;;;;;;38.80;21.17;;;;;;;-1.30;72.43;100908.56;3607706;39;20087;-63
2022/12/13 09:41:26;;;;;;;36.83;20.63;;;;;;;-1.40;71.69;100884.06;3608154;39;20286;-63
2022/12/13 09:44:04;;;;;;;37.88;20.23;;;;;;;-1.17;71.63;100913.69;3606517;39;20051;-63
2022/12/13 09:46:38;;;;;;;38.97;20.38;;;;;;;-1.25;71.29;100883.88;3606974;39;20429;-63
2022/12/13 09:49:17;;;;;;;35.85;20.48;;;;;;;-1.09;70.96;100904.78;3607937;39;20047;-64
2022/12/13 09:51:52;;;;;;;37.50;20.42;;;;;;;-1.01;71.01;100902.94;3611972;39;20374;-63
2022/12/13 09:54:24;;;;;;;34.33;19.65;;;;;;;-1.09;70.93;100873.13;3609463;39;20058;-63
2022/12/13 09:56:54;;;;;;;36.22;20.17;;;;;;;-0.77;71.32;100905.22;3612179;39;20071;-62
2022/12/13 09:59:34;;;;;;;37.78;20.73;;;;;;;-0.65;70.35;100895.41;3613174;39;20104;-63
2022/12/13 10:02:11;;;;;;;38.35;21.40;;;;;;;-0.55;70.27;100897.00;3611442;39;20046;-63
2022/12/13 10:04:37;;;;;;;39.33;22.52;;;;;;;-0.42;69.74;100893.25;3612349;39;20058;-63
2022/12/13 10:07:20;;;;;;;39.33;21.98;;;;;;;-0.24;69.58;100895.63;3607287;39;20063;-64
2022/12/13 10:09:47;;;;;;;39.95;22.98;;;;;;;-0.14;68.96;100888.41;3610543;39;20054;-64
2022/12/13 10:12:15;;;;;;;38.80;21.52;;;;;;;-0.02;67.79;100887.34;3611028;39;20051;-63
2022/12/13 10:14:59;;;;;;;35.65;21.05;;;;;;;0.21;67.79;100885.16;3603499;39;20108;-64
2022/12/13 10:17:39;;;;;;;36.58;21.05;;;;;;;0.43;66.65;100876.81;3603374;39;20047;-63
2022/12/13 10:20:14;;;;;;;38.13;21.42;;;;;;;0.49;65.89;100862.59;3601171;39;20043;-64
2022/12/13 10:22:40;;;;;;;34.40;19.92;;;;;;;0.51;65.12;100869.63;3596879;39;20055;-63
2022/12/13 10:25:07;;;;;;;35.22;20.17;;;;;;;0.41;65.67;100881.25;3604131;39;20877;-66
2022/12/13 10:27:39;;;;;;;39.30;20.70;;;;;;;0.40;65.94;100888.31;3606455;39;20094;-64
2022/12/13 10:30:15;;;;;;;35.35;19.65;;;;;;;0.43;65.32;100863.59;3614208;39;20047;-63
2022/12/13 10:33:02;;;;;;;33.72;20.27;;;;;;;0.45;64.98;100861.81;3612007;39;20055;-64
2022/12/13 10:35:39;;;;;;;37.20;20.27;;;;;;;0.57;65.76;100864.22;3608799;39;20058;-64
2022/12/13 10:38:08;;;;;;;35.65;20.00;;;;;;;0.66;66.20;100852.53;3610424;39;20346;-64
2022/12/13 10:40:45;;;;;;;34.22;19.48;;;;;;;0.80;65.31;100849.63;3608641;39;20454;-63
2022/12/13 10:43:17;;;;;;;32.88;18.27;;;;;;;0.80;64.21;100857.56;3606145;39;20062;-64
2022/12/13 10:45:55;;;;;;;33.50;19.48;;;;;;;0.82;64.30;100853.09;3612523;39;20047;-64
2022/12/13 10:48:32;;;;;;;34.30;18.83;;;;;;;0.95;64.46;100851.91;3612050;39;20058;-63
2022/12/13 10:51:09;;;;;;;36.25;19.42;;;;;;;1.16;64.74;100854.09;3610712;39;20393;-63
2022/12/13 10:53:44;;;;;;;34.13;18.65;;;;;;;1.40;64.63;100843.84;3607207;39;20050;-64
2022/12/13 10:56:11;;;;;;;37.58;19.83;;;;;;;1.67;63.95;100841.44;3610221;39;20133;-63
2022/12/13 10:58:42;;;;;;;34.25;19.73;;;;;;;1.86;61.84;100837.41;3612852;39;20117;-63
2022/12/13 11:01:20;;;;;;;33.55;19.45;;;;;;;1.86;60.31;100837.41;3607375;39;20297;-64
2022/12/13 11:04:02;;;;;;;32.78;18.38;;;;;;;1.93;60.70;100831.03;3609397;39;20039;-63
2022/12/13 11:06:41;;;;;;;36.67;18.55;;;;;;;2.02;60.34;100827.25;3609046;39;20124;-64
2022/12/13 11:09:16;;;;;;;33.03;18.30;;;;;;;1.98;61.79;100815.88;3610965;39;20062;-63
2022/12/13 11:11:44;;;;;;;39.58;23.63;;;;;;;2.16;61.85;100819.81;3610821;39;20053;-63
2022/12/13 11:14:20;;;;;;;37.58;19.30;;;;;;;2.38;59.12;100814.81;3611320;39;20097;-62
2022/12/13 11:17:04;;;;;;;31.33;18.88;;;;;;;2.73;58.75;100803.16;3611341;39;20094;-63
2022/12/13 11:19:47;;;;;;;30.65;18.52;;;;;;;2.93;59.04;100797.22;3608172;39;20059;-62
2022/12/13 11:22:27;;;;;;;31.33;17.30;;;;;;;2.75;57.26;100800.44;3610992;39;20047;-63
2022/12/13 11:25:07;;;;;;;30.80;17.73;;;;;;;2.68;57.94;100806.84;3611809;39;20065;-63
2022/12/13 11:27:48;;;;;;;28.23;17.67;;;;;;;2.55;58.12;100812.50;3609336;39;20043;-63